createdAt,value
2023-05-11T00:02:28.600Z,65.52
2023-05-11T00:04:57.180Z,65.72
2023-05-11T00:07:25.859Z,65.71
2023-05-11T00:09:54.221Z,65.08
2023-05-11T00:12:22.680Z,65.02
2023-05-11T00:14:51.199Z,65.51
2023-05-11T00:17:20.671Z,65.16
2023-05-11T00:19:50.540Z,65.99
2023-05-11T00:22:18.958Z,66.19
2023-05-11T00:24:47.256Z,65.89
2023-05-11T00:27:15.610Z,66.36
2023-05-11T00:29:43.992Z,65.72
2023-05-11T00:32:12.340Z,66.25
2023-05-11T00:34:40.741Z,66.78
2023-05-11T00:37:10.562Z,66.69
2023-05-11T00:39:40.668Z,66.80
2023-05-11T00:42:09.341Z,67.04
2023-05-11T00:44:37.649Z,66.63
2023-05-11T00:47:06.238Z,66.39
2023-05-11T00:49:35.030Z,66.87
2023-05-11T00:52:03.908Z,66.58
2023-05-11T00:54:34.056Z,67.04
2023-05-11T00:57:02.813Z,67.33
2023-05-11T00:59:31.426Z,67.31
2023-05-11T01:01:59.910Z,68.25
2023-05-11T01:04:28.624Z,66.48
2023-05-11T01:07:07.382Z,67.37
2023-05-11T01:09:49.448Z,67.02
2023-05-11T01:12:27.164Z,67.34
2023-05-11T01:15:04.987Z,67.91
2023-05-11T01:17:46.148Z,67.92
2023-05-11T01:20:20.377Z,68.09
2023-05-11T01:23:32.918Z,68.76
2023-05-11T01:26:22.887Z,68.70
2023-05-11T01:29:21.300Z,69.14
2023-05-11T01:31:55.693Z,68.51
2023-05-11T01:34:27.624Z,68.43
2023-05-11T01:37:00.454Z,68.02
2023-05-11T01:39:34.564Z,67.71
2023-05-11T01:42:10.485Z,67.24
2023-05-11T01:44:44.075Z,67.89
2023-05-11T01:47:15.195Z,68.57
2023-05-11T01:49:47.308Z,68.41
2023-05-11T01:52:17.010Z,67.96
2023-05-11T01:54:46.632Z,68.38
2023-05-11T01:57:16.584Z,68.78
2023-05-11T01:59:47.378Z,68.88
2023-05-11T02:02:19.837Z,68.46
2023-05-11T02:04:49.177Z,69.41
2023-05-11T02:07:19.744Z,69.16
2023-05-11T02:09:51.257Z,69.10
2023-05-11T02:12:21.476Z,69.64
2023-05-11T02:14:51.618Z,71.11
2023-05-11T02:17:23.977Z,69.95
2023-05-11T02:19:52.839Z,70.54
2023-05-11T02:22:23.996Z,70.52
2023-05-11T02:24:52.469Z,69.99
2023-05-11T02:27:21.153Z,69.80
2023-05-11T02:29:49.614Z,69.64
2023-05-11T02:32:24.057Z,71.03
2023-05-11T02:35:08.869Z,71.50
2023-05-11T02:37:43.343Z,70.12
2023-05-11T02:40:19.255Z,70.40
2023-05-11T02:42:56.318Z,69.76
2023-05-11T02:45:29.927Z,70.13
2023-05-11T02:48:02.214Z,69.95
2023-05-11T02:50:32.984Z,69.43
2023-05-11T02:53:07.725Z,69.79
2023-05-11T02:55:36.569Z,70.25
2023-05-11T02:58:05.033Z,69.76
2023-05-11T03:00:34.089Z,71.16
2023-05-11T03:03:05.360Z,71.40
2023-05-11T03:05:33.769Z,71.08
2023-05-11T03:08:02.370Z,71.39
2023-05-11T03:10:31.499Z,71.86
2023-05-11T03:13:00.918Z,71.91
2023-05-11T03:15:30.516Z,71.96
2023-05-11T03:18:03.153Z,72.21
2023-05-11T03:20:33.039Z,71.70
2023-05-11T03:23:03.847Z,71.58
2023-05-11T03:25:33.036Z,71.99
2023-05-11T03:28:03.033Z,71.67
2023-05-11T03:30:34.253Z,71.43
2023-05-11T03:33:04.237Z,71.86
2023-05-11T03:35:36.214Z,72.02
2023-05-11T03:38:06.976Z,72.58
2023-05-11T03:40:36.117Z,72.33
2023-05-11T03:43:06.622Z,71.95
2023-05-11T03:45:36.851Z,71.85
2023-05-11T03:48:09.790Z,71.73
2023-05-11T03:50:40.903Z,71.58
2023-05-11T03:53:09.784Z,71.59
2023-05-11T03:55:39.256Z,72.05
2023-05-11T03:58:09.083Z,70.91
2023-05-11T04:00:40.353Z,70.80
2023-05-11T04:03:10.898Z,71.42
2023-05-11T04:05:40.417Z,71.07
2023-05-11T04:08:11.782Z,71.57
2023-05-11T04:10:40.845Z,71.82
2023-05-11T04:13:09.234Z,71.40
2023-05-11T04:15:38.403Z,71.18
2023-05-11T04:18:06.915Z,71.38
2023-05-11T04:20:36.613Z,71.92
2023-05-11T04:23:04.957Z,72.00
2023-05-11T04:25:33.328Z,71.76
2023-05-11T04:28:01.716Z,71.93
2023-05-11T04:30:30.398Z,71.82
2023-05-11T04:32:58.949Z,72.55
2023-05-11T04:35:27.464Z,72.82
2023-05-11T04:37:57.411Z,72.46
2023-05-11T04:40:26.747Z,72.71
2023-05-11T04:42:55.879Z,72.31
2023-05-11T04:45:24.330Z,73.08
2023-05-11T04:47:52.797Z,73.14
2023-05-11T04:50:21.393Z,72.10
2023-05-11T04:52:49.881Z,72.39
2023-05-11T04:55:19.928Z,72.23
2023-05-11T04:57:49.086Z,72.59
2023-05-11T05:00:20.006Z,71.96
2023-05-11T05:02:50.892Z,72.08
2023-05-11T05:05:19.554Z,71.70
2023-05-11T05:07:48.330Z,71.72
2023-05-11T05:10:16.962Z,72.00
2023-05-11T05:12:47.028Z,71.80
2023-05-11T05:15:16.380Z,70.88
2023-05-11T05:17:44.800Z,71.28
2023-05-11T05:20:14.572Z,71.11
2023-05-11T05:22:42.995Z,71.33
2023-05-11T05:25:12.152Z,71.31
2023-05-11T05:27:40.758Z,71.18
2023-05-11T05:30:15.020Z,71.88
2023-05-11T05:32:43.621Z,71.56
2023-05-11T05:35:12.144Z,70.82
2023-05-11T05:37:41.374Z,71.17
2023-05-11T05:40:11.153Z,70.81
2023-05-11T05:42:47.327Z,71.00
2023-05-11T05:45:22.196Z,70.92
2023-05-11T05:47:52.017Z,71.51
2023-05-11T05:50:21.617Z,70.58
2023-05-11T05:52:50.126Z,71.73
2023-05-11T05:55:18.874Z,70.86
2023-05-11T05:57:49.439Z,70.73
2023-05-11T06:00:18.762Z,70.60
2023-05-11T06:02:56.434Z,71.11
2023-05-11T06:05:27.718Z,70.73
2023-05-11T06:08:09.351Z,71.38
2023-05-11T06:10:39.363Z,70.97
2023-05-11T06:13:09.744Z,70.65
2023-05-11T06:15:42.574Z,71.09
2023-05-11T06:18:21.508Z,69.92
2023-05-11T06:20:50.913Z,70.23
2023-05-11T06:23:20.269Z,69.85
2023-05-11T06:25:49.489Z,70.50
2023-05-11T06:28:19.173Z,69.86
2023-05-11T06:30:47.828Z,70.45
2023-05-11T06:33:16.187Z,69.90
2023-05-11T06:35:46.019Z,69.98
2023-05-11T06:38:16.185Z,70.04
2023-05-11T06:40:44.802Z,69.99
2023-05-11T06:43:13.338Z,69.78
2023-05-11T06:45:47.223Z,69.51
2023-05-11T06:48:16.608Z,69.70
2023-05-11T06:50:46.473Z,69.10
2023-05-11T06:53:17.165Z,69.40
2023-05-11T06:55:45.666Z,69.38
2023-05-11T06:58:14.267Z,69.53
2023-05-11T07:00:42.820Z,68.82
2023-05-11T07:03:11.520Z,69.27
2023-05-11T07:05:40.184Z,68.97
2023-05-11T07:08:10.036Z,68.09
2023-05-11T07:10:38.522Z,68.33
2023-05-11T07:13:06.907Z,68.24
2023-05-11T07:15:35.343Z,69.52
2023-05-11T07:18:03.891Z,67.66
2023-05-11T07:20:32.408Z,67.40
2023-05-11T07:23:00.894Z,67.46
2023-05-11T07:25:30.781Z,67.34
2023-05-11T07:27:59.245Z,67.48
2023-05-11T07:30:27.754Z,67.51
2023-05-11T07:32:56.177Z,69.51
2023-05-11T07:35:24.679Z,69.86
2023-05-11T07:37:53.247Z,70.23
2023-05-11T07:40:23.605Z,70.19
2023-05-11T07:42:54.199Z,70.89
2023-05-11T07:45:22.616Z,70.53
2023-05-11T07:47:51.123Z,70.84
2023-05-11T07:50:19.749Z,70.44
2023-05-11T07:52:49.401Z,70.45
2023-05-11T07:55:20.212Z,70.36
2023-05-11T07:57:48.996Z,70.84
2023-05-11T08:00:20.090Z,71.23
2023-05-11T08:02:48.880Z,70.84
2023-05-11T08:05:18.875Z,70.28
2023-05-11T08:07:47.933Z,70.53
2023-05-11T08:10:16.359Z,69.82
2023-05-11T08:12:44.856Z,69.76
2023-05-11T08:15:13.678Z,69.99
2023-05-11T08:17:46.243Z,70.34
2023-05-11T08:20:15.200Z,70.19
2023-05-11T08:22:43.635Z,70.85
2023-05-11T08:25:12.745Z,70.30
2023-05-11T08:27:41.225Z,70.18
2023-05-11T08:30:11.954Z,70.70
2023-05-11T08:35:13.845Z,69.54
2023-05-11T08:37:42.340Z,69.71
2023-05-11T08:40:14.999Z,69.99
2023-05-11T08:42:49.510Z,69.18
2023-05-11T08:45:19.292Z,68.74
2023-05-11T08:47:50.102Z,68.87
2023-05-11T08:50:18.846Z,69.30
2023-05-11T08:52:47.282Z,68.83
2023-05-11T08:55:15.769Z,68.64
2023-05-11T08:57:46.893Z,67.66
2023-05-11T09:00:17.260Z,68.04
2023-05-11T09:02:46.664Z,67.85
2023-05-11T09:05:17.284Z,69.47
2023-05-11T09:07:48.545Z,69.10
2023-05-11T09:10:17.742Z,67.47
2023-05-11T09:12:46.188Z,67.76
2023-05-11T09:15:14.684Z,67.63
2023-05-11T09:17:43.140Z,68.52
2023-05-11T09:20:12.820Z,69.23
2023-05-11T09:22:46.681Z,69.22
2023-05-11T09:25:17.062Z,68.68
2023-05-11T09:27:46.657Z,68.14
2023-05-11T09:32:51.401Z,67.94
2023-05-11T09:35:25.385Z,67.87
2023-05-11T09:38:05.897Z,68.13
2023-05-11T09:40:37.645Z,67.92
2023-05-11T09:43:18.816Z,68.54
2023-05-11T09:45:49.862Z,68.07
2023-05-11T09:48:31.734Z,67.42
2023-05-11T09:51:04.347Z,67.45
2023-05-11T09:53:41.042Z,67.25
2023-05-11T09:56:10.007Z,67.24
2023-05-11T09:58:51.180Z,67.39
2023-05-11T10:01:29.330Z,67.33
2023-05-11T10:04:06.071Z,67.35
2023-05-11T10:06:49.475Z,66.94
2023-05-11T10:09:24.398Z,66.07
2023-05-11T10:11:54.712Z,65.87
2023-05-11T10:14:24.096Z,66.65
2023-05-11T10:16:53.498Z,66.18
2023-05-11T10:19:22.277Z,66.54
2023-05-11T10:21:52.876Z,65.76
2023-05-11T10:24:23.212Z,65.61
2023-05-11T10:26:52.208Z,65.53
2023-05-11T10:29:21.112Z,64.81
2023-05-11T10:31:51.688Z,65.26
2023-05-11T10:34:23.363Z,65.67
2023-05-11T10:36:53.904Z,66.12
2023-05-11T10:39:23.753Z,67.29
2023-05-11T10:42:15.270Z,67.55
2023-05-11T10:45:02.433Z,68.29
2023-05-11T10:48:45.575Z,67.79
2023-05-11T10:51:39.360Z,66.94
2023-05-11T10:54:37.981Z,67.19
2023-05-11T10:57:22.902Z,66.36
2023-05-11T11:00:47.897Z,66.53
2023-05-11T11:03:16.871Z,66.23
2023-05-11T11:05:46.405Z,65.80
2023-05-11T11:08:15.152Z,65.31
2023-05-11T11:10:46.793Z,65.06
2023-05-11T11:13:16.886Z,66.18
2023-05-11T11:16:16.178Z,65.73
2023-05-11T11:18:45.378Z,66.34
2023-05-11T11:21:15.875Z,67.57
2023-05-11T11:23:49.135Z,66.22
2023-05-11T11:26:50.452Z,66.32
2023-05-11T11:29:19.028Z,66.37
2023-05-11T11:31:47.735Z,66.92
2023-05-11T11:34:38.920Z,66.60
2023-05-11T11:37:10.013Z,66.80
2023-05-11T11:40:13.297Z,68.52
2023-05-11T11:42:45.018Z,68.54
2023-05-11T11:45:33.846Z,68.45
2023-05-11T11:48:16.635Z,69.11
2023-05-11T11:50:48.425Z,68.89
2023-05-11T11:54:06.610Z,69.10
2023-05-11T11:56:45.970Z,69.86
2023-05-11T11:59:16.477Z,70.69
2023-05-11T12:01:46.568Z,69.67
2023-05-11T12:04:57.745Z,69.44
2023-05-11T12:07:27.546Z,70.97
2023-05-11T12:09:56.867Z,73.29
2023-05-11T12:12:25.909Z,72.93
2023-05-11T12:14:56.104Z,73.66
2023-05-11T12:17:30.898Z,72.82
2023-05-11T12:20:15.540Z,74.63
2023-05-11T12:22:44.579Z,74.92
2023-05-11T12:25:17.848Z,75.03
2023-05-11T12:27:52.199Z,77.03
2023-05-11T12:30:23.985Z,79.58
2023-05-11T12:32:56.803Z,76.57
2023-05-11T12:35:27.625Z,77.10
2023-05-11T12:37:57.498Z,76.47
2023-05-11T12:40:26.012Z,77.06
2023-05-11T12:42:55.944Z,76.64
2023-05-11T12:45:27.535Z,77.54
2023-05-11T12:47:58.586Z,77.02
2023-05-11T12:50:27.221Z,78.60
2023-05-11T12:52:55.717Z,79.11
2023-05-11T12:55:31.467Z,78.72
2023-05-11T12:58:11.584Z,79.28
2023-05-11T13:00:54.152Z,78.21
2023-05-11T13:03:24.034Z,77.90
2023-05-11T13:05:52.718Z,78.26
2023-05-11T13:08:21.697Z,78.12
2023-05-11T13:10:50.049Z,77.85
2023-05-11T13:13:28.668Z,77.34
2023-05-11T13:15:59.006Z,75.05
2023-05-11T13:18:27.419Z,75.22
2023-05-11T13:21:08.679Z,75.12
2023-05-11T13:23:37.407Z,76.75
2023-05-11T13:26:05.854Z,77.14
2023-05-11T13:28:35.729Z,76.81
2023-05-11T13:31:05.771Z,77.35
2023-05-11T13:33:34.686Z,76.52
2023-05-11T13:36:03.641Z,76.62
2023-05-11T13:38:32.117Z,76.91
2023-05-11T13:41:00.531Z,76.79
2023-05-11T13:43:29.693Z,76.57
2023-05-11T13:45:58.106Z,76.87
2023-05-11T13:48:27.800Z,77.21
2023-05-11T13:50:56.167Z,75.21
2023-05-11T13:53:24.591Z,74.31
2023-05-11T13:55:53.011Z,74.25
2023-05-11T13:58:21.795Z,74.95
2023-05-11T14:01:06.591Z,74.78
2023-05-11T14:03:37.316Z,75.18
2023-05-11T14:06:07.685Z,76.02
2023-05-11T14:08:36.162Z,76.20
2023-05-11T14:11:06.030Z,75.88
2023-05-11T14:13:34.346Z,75.36
2023-05-11T14:16:02.816Z,75.96
2023-05-11T14:18:31.408Z,75.87
2023-05-11T14:21:01.325Z,75.40
2023-05-11T14:23:29.737Z,74.48
2023-05-11T14:25:58.266Z,73.70
2023-05-11T14:28:27.091Z,74.39
2023-05-11T14:30:56.477Z,73.71
2023-05-11T14:33:25.820Z,73.47
2023-05-11T14:35:55.521Z,72.37
2023-05-11T14:38:25.274Z,71.85
2023-05-11T14:40:54.922Z,70.89
2023-05-11T14:43:24.260Z,71.94
2023-05-11T14:45:52.724Z,71.90
2023-05-11T14:48:21.817Z,71.77
2023-05-11T14:50:50.243Z,69.55
2023-05-11T14:53:18.723Z,69.84
2023-05-11T14:55:48.775Z,70.01
2023-05-11T14:58:17.441Z,69.48
2023-05-11T15:00:45.876Z,68.67
2023-05-11T15:03:14.500Z,68.71
2023-05-11T15:05:42.990Z,68.94
2023-05-11T15:08:22.088Z,69.05
2023-05-11T15:10:59.371Z,69.08
2023-05-11T15:13:27.929Z,68.30
2023-05-11T15:15:56.326Z,69.06
2023-05-11T15:18:24.710Z,69.27
2023-05-11T15:20:53.116Z,70.70
2023-05-11T15:23:21.652Z,71.20
2023-05-11T15:25:50.234Z,71.27
2023-05-11T15:28:20.216Z,71.89
2023-05-11T15:30:49.431Z,71.66
2023-05-11T15:33:19.986Z,72.18
2023-05-11T15:35:50.204Z,71.61
2023-05-11T15:38:19.135Z,70.16
2023-05-11T15:40:47.513Z,69.79
2023-05-11T15:43:17.705Z,70.22
2023-05-11T15:45:47.604Z,69.33
2023-05-11T15:48:15.993Z,68.80
2023-05-11T15:50:44.344Z,69.95
2023-05-11T15:53:13.870Z,72.11
2023-05-11T15:55:45.436Z,70.87
2023-05-11T15:58:13.814Z,69.50
2023-05-11T16:00:42.320Z,70.95
2023-05-11T16:03:12.225Z,71.06
2023-05-11T16:05:41.056Z,70.03
2023-05-11T16:08:09.500Z,69.91
2023-05-11T16:10:38.117Z,70.41
2023-05-11T16:13:06.504Z,71.18
2023-05-11T16:15:36.755Z,71.75
2023-05-11T16:18:05.833Z,71.66
2023-05-11T16:20:35.624Z,70.41
2023-05-11T16:23:04.391Z,70.84
2023-05-11T16:25:32.803Z,71.31
2023-05-11T16:28:01.525Z,72.55
2023-05-11T16:30:30.139Z,72.65
2023-05-11T16:32:58.905Z,72.87
2023-05-11T16:35:27.389Z,73.16
2023-05-11T16:37:59.373Z,73.94
2023-05-11T16:40:27.925Z,74.63
2023-05-11T16:42:56.300Z,74.28
2023-05-11T16:45:24.903Z,74.37
2023-05-11T16:47:53.650Z,74.76
2023-05-11T16:50:22.507Z,74.08
2023-05-11T16:52:51.026Z,74.53
2023-05-11T16:55:21.402Z,75.32
2023-05-11T16:57:51.560Z,75.14
2023-05-11T17:00:20.769Z,74.60
2023-05-11T17:02:49.840Z,74.87
2023-05-11T17:05:19.058Z,75.46
2023-05-11T17:07:47.435Z,75.83
2023-05-11T17:10:16.171Z,75.53
2023-05-11T17:12:45.921Z,75.84
2023-05-11T17:15:14.338Z,75.95
2023-05-11T17:17:42.702Z,75.72
2023-05-11T17:20:12.394Z,76.28
2023-05-11T17:22:40.707Z,76.41
2023-05-11T17:25:10.211Z,76.91
2023-05-11T17:27:38.702Z,77.01
2023-05-11T17:30:10.465Z,76.47
2023-05-11T17:32:39.014Z,77.18
2023-05-11T17:35:09.284Z,78.11
2023-05-11T17:37:37.783Z,77.91
2023-05-11T17:40:07.912Z,77.72
2023-05-11T17:42:36.230Z,78.42
2023-05-11T17:45:05.008Z,78.20
2023-05-11T17:47:34.863Z,78.07
2023-05-11T17:50:03.659Z,78.78
2023-05-11T17:52:32.632Z,78.19
2023-05-11T17:55:02.462Z,78.47
2023-05-11T17:57:30.927Z,79.30
2023-05-11T17:59:59.262Z,77.32
2023-05-11T18:02:27.824Z,78.12
2023-05-11T18:04:57.626Z,78.01
2023-05-11T18:07:26.084Z,76.92
2023-05-11T18:09:54.431Z,77.03
2023-05-11T18:12:22.941Z,76.75
2023-05-11T18:14:51.351Z,77.17
2023-05-11T18:17:19.798Z,77.46
2023-05-11T18:19:48.204Z,77.78
2023-05-11T18:22:18.220Z,76.84
2023-05-11T18:24:46.725Z,77.58
2023-05-11T18:27:15.300Z,76.69
2023-05-11T18:29:45.105Z,77.74
2023-05-11T18:32:13.543Z,78.14
2023-05-11T18:34:42.561Z,77.82
2023-05-11T18:37:11.302Z,78.44
2023-05-11T18:39:41.098Z,79.04
2023-05-11T18:42:09.473Z,79.46
2023-05-11T18:44:37.824Z,79.27
2023-05-11T18:47:07.218Z,79.47
2023-05-11T18:49:35.633Z,79.40
2023-05-11T18:52:04.405Z,78.72
2023-05-11T18:54:33.751Z,78.81
2023-05-11T18:57:04.164Z,78.76
2023-05-11T18:59:32.548Z,78.76
2023-05-11T19:02:01.353Z,78.80
2023-05-11T19:04:30.487Z,79.18
2023-05-11T19:06:58.802Z,78.90
2023-05-11T19:09:28.164Z,78.94
2023-05-11T19:11:56.964Z,78.31
2023-05-11T19:14:26.955Z,78.50
2023-05-11T19:16:55.458Z,77.83
2023-05-11T19:19:23.829Z,78.92
2023-05-11T19:21:52.744Z,78.49
2023-05-11T19:24:21.109Z,78.91
2023-05-11T19:26:58.877Z,78.65
2023-05-11T19:29:35.630Z,79.61
2023-05-11T19:32:04.146Z,78.95
2023-05-11T19:34:32.787Z,78.17
2023-05-11T19:37:01.221Z,78.97
2023-05-11T19:39:29.570Z,78.28
2023-05-11T19:41:57.926Z,78.05
2023-05-11T19:44:26.362Z,78.34
2023-05-11T19:46:56.071Z,77.72
2023-05-11T19:49:24.809Z,78.53
2023-05-11T19:51:53.262Z,78.52
2023-05-11T19:54:22.338Z,78.63
2023-05-11T19:56:50.710Z,78.13
2023-05-11T19:59:19.525Z,78.18
2023-05-11T20:01:47.979Z,78.83
2023-05-11T20:04:17.997Z,78.94
2023-05-11T20:06:46.327Z,78.53
2023-05-11T20:09:14.839Z,78.62
2023-05-11T20:11:43.293Z,78.63
2023-05-11T20:14:11.651Z,78.57
2023-05-11T20:16:40.102Z,78.53
2023-05-11T20:19:09.395Z,79.24
2023-05-11T20:21:39.265Z,78.66
2023-05-11T20:24:08.057Z,78.73
2023-05-11T20:26:37.796Z,79.00
2023-05-11T20:29:07.792Z,79.62
2023-05-11T20:31:36.409Z,80.31
2023-05-11T20:34:07.581Z,79.94
2023-05-11T20:36:36.101Z,80.21
2023-05-11T20:39:06.007Z,79.69
2023-05-11T20:41:34.945Z,79.63
2023-05-11T20:44:03.940Z,79.62
2023-05-11T20:46:32.255Z,79.93
2023-05-11T20:49:00.562Z,80.43
2023-05-11T20:51:28.926Z,79.81
2023-05-11T20:53:57.353Z,79.90
2023-05-11T20:56:27.156Z,79.83
2023-05-11T20:58:55.502Z,80.09
2023-05-11T21:01:23.983Z,80.68
2023-05-11T21:03:52.446Z,80.85
2023-05-11T21:06:20.809Z,79.81
2023-05-11T21:08:49.296Z,79.84
2023-05-11T21:11:18.089Z,79.84
2023-05-11T21:13:48.810Z,79.48
2023-05-11T21:16:17.503Z,79.79
2023-05-11T21:18:46.009Z,80.24
2023-05-11T21:21:15.387Z,80.36
2023-05-11T21:23:44.237Z,80.92
2023-05-11T21:26:13.656Z,80.38
2023-05-11T21:28:42.336Z,81.00
2023-05-11T21:31:12.155Z,80.50
2023-05-11T21:33:40.597Z,80.54
2023-05-11T21:36:09.459Z,81.00
2023-05-11T21:38:37.765Z,80.66
2023-05-11T21:41:06.275Z,80.67
2023-05-11T21:43:34.710Z,80.83
2023-05-11T21:46:03.127Z,80.98
2023-05-11T21:48:33.080Z,81.65
2023-05-11T21:51:01.504Z,81.00
2023-05-11T21:53:29.915Z,81.71
2023-05-11T21:55:58.344Z,81.89
2023-05-11T21:58:27.544Z,81.86
2023-05-11T22:00:57.052Z,81.07
2023-05-11T22:03:25.627Z,81.54
2023-05-11T22:05:55.557Z,81.74
2023-05-11T22:08:24.192Z,81.58
2023-05-11T22:10:52.581Z,82.30
2023-05-11T22:13:21.104Z,81.95
2023-05-11T22:15:49.526Z,82.29
2023-05-11T22:18:17.953Z,81.82
2023-05-11T22:20:46.324Z,81.80
2023-05-11T22:23:49.432Z,82.04
2023-05-11T22:26:18.037Z,82.29
2023-05-11T22:28:47.163Z,82.66
2023-05-11T22:31:15.552Z,82.83
2023-05-11T22:33:43.949Z,83.40
2023-05-11T22:36:12.887Z,83.20
2023-05-11T22:38:42.707Z,83.37
2023-05-11T22:41:11.088Z,83.84
2023-05-11T22:43:39.427Z,84.16
2023-05-11T22:46:07.905Z,84.09
2023-05-11T22:48:36.271Z,84.48
2023-05-11T22:51:06.471Z,84.33
2023-05-11T22:53:34.962Z,84.82
2023-05-11T22:56:05.788Z,84.61
2023-05-11T22:58:34.277Z,84.94
2023-05-11T23:01:02.805Z,85.17
2023-05-11T23:03:31.246Z,85.70
2023-05-11T23:05:59.674Z,85.32
2023-05-11T23:08:28.070Z,85.37
2023-05-11T23:10:56.440Z,85.40
2023-05-11T23:13:26.417Z,85.39
2023-05-11T23:15:54.853Z,86.24
2023-05-11T23:18:23.387Z,86.34
2023-05-11T23:20:57.469Z,86.45
2023-05-11T23:23:26.084Z,85.48
2023-05-11T23:25:54.963Z,86.09
2023-05-11T23:28:23.557Z,86.37
2023-05-11T23:30:53.314Z,86.58
2023-05-11T23:33:21.854Z,85.90
2023-05-11T23:35:50.253Z,85.73
2023-05-11T23:38:18.800Z,86.35
2023-05-11T23:40:59.474Z,86.41
2023-05-11T23:43:28.854Z,85.74
2023-05-11T23:45:58.591Z,86.18
2023-05-11T23:48:26.927Z,85.54
2023-05-11T23:50:55.310Z,85.46
2023-05-11T23:53:23.684Z,85.54
2023-05-11T23:55:52.049Z,85.29
2023-05-11T23:58:20.416Z,85.35
